Time;durP1;ratioP1;P1;durP2;ratioP2;P2;SDS_P1;SDS_P2;PMS_P1;PMS_P2;Temp;Humidity;BMP_temperature;BMP_pressure;BME280_temperature;BME280_humidity;BME280_pressure;Samples;Min_cycle;Max_cycle;Signal;HPM_P1;HPM_P2
2023/04/29 00:00:13;;;;;;;4.93;4.47;;;11.70;99.90;;;;;;5139080;27;20821;-68
2023/04/29 00:02:43;;;;;;;5.60;4.47;;;11.70;99.90;;;;;;5143144;27;20578;-67
2023/04/29 00:05:10;;;;;;;15.27;11.33;;;11.70;99.90;;;;;;5148145;27;20456;-68
2023/04/29 00:07:37;;;;;;;10.80;7.43;;;11.70;99.90;;;;;;5145737;27;20542;-69
2023/04/29 00:10:05;;;;;;;17.70;11.13;;;11.60;99.90;;;;;;5141834;27;20566;-68
2023/04/29 00:12:33;;;;;;;12.80;9.53;;;11.60;99.90;;;;;;5142361;27;20504;-69
2023/04/29 00:15:01;;;;;;;12.70;8.03;;;11.50;99.90;;;;;;5148710;27;20459;-68
2023/04/29 00:17:28;;;;;;;12.00;8.47;;;11.40;99.90;;;;;;5155310;27;20557;-69
2023/04/29 00:19:57;;;;;;;25.50;12.10;;;11.30;99.90;;;;;;5146119;27;20451;-68
2023/04/29 00:22:24;;;;;;;8.83;6.97;;;11.30;99.90;;;;;;5143569;27;20490;-69
2023/04/29 00:24:51;;;;;;;9.20;7.80;;;11.10;99.90;;;;;;5145950;27;20458;-68
2023/04/29 00:27:18;;;;;;;9.73;8.03;;;11.10;99.90;;;;;;5136652;27;20685;-68
2023/04/29 00:29:47;;;;;;;13.40;10.03;;;11.00;99.90;;;;;;5149222;27;20458;-68
2023/04/29 00:32:14;;;;;;;12.17;9.70;;;11.10;99.90;;;;;;5143390;27;20520;-69
2023/04/29 00:34:42;;;;;;;23.70;13.50;;;11.10;99.90;;;;;;5149917;27;20454;-68
2023/04/29 00:37:09;;;;;;;36.97;9.20;;;11.10;99.90;;;;;;5132372;27;20936;-68
2023/04/29 00:39:36;;;;;;;18.50;9.87;;;11.10;99.90;;;;;;5139098;27;20463;-68
2023/04/29 00:42:04;;;;;;;10.97;5.13;;;11.10;99.90;;;;;;5149948;27;20716;-68
2023/04/29 00:44:31;;;;;;;11.47;9.17;;;11.10;99.90;;;;;;5149200;27;20459;-68
2023/04/29 00:46:58;;;;;;;9.00;8.10;;;11.10;99.90;;;;;;5143505;27;20463;-68
2023/04/29 00:49:26;;;;;;;17.40;11.20;;;11.10;99.90;;;;;;5139844;27;20519;-68
2023/04/29 00:51:56;;;;;;;14.00;9.50;;;11.10;99.90;;;;;;5143494;27;20463;-69
2023/04/29 00:54:24;;;;;;;14.00;10.27;;;11.10;99.90;;;;;;5143447;27;20507;-68
2023/04/29 00:56:52;;;;;;;9.60;6.50;;;11.10;99.90;;;;;;5141353;27;20972;-68
2023/04/29 00:59:21;;;;;;;18.60;10.67;;;11.10;99.90;;;;;;5146449;27;20890;-68
2023/04/29 01:01:48;;;;;;;9.70;7.77;;;11.20;99.90;;;;;;5149528;27;20483;-68
2023/04/29 01:04:16;;;;;;;13.13;9.50;;;11.20;99.90;;;;;;5134254;27;20478;-69
2023/04/29 01:07:01;;;;;;;8.37;7.43;;;11.10;99.90;;;;;;5140570;27;20519;-68
2023/04/29 01:09:49;;;;;;;4.87;4.47;;;11.10;99.90;;;;;;5136438;27;20923;-69
2023/04/29 01:12:24;;;;;;;8.30;7.07;;;11.10;99.90;;;;;;5132335;27;20520;-69
2023/04/29 01:15:03;;;;;;;11.63;7.90;;;11.10;99.90;;;;;;5147215;27;20459;-68
2023/04/29 01:17:36;;;;;;;7.87;7.10;;;11.10;99.90;;;;;;5144235;27;20487;-69
2023/04/29 01:20:05;;;;;;;17.37;11.30;;;10.90;99.90;;;;;;5145204;27;20464;-68
2023/04/29 01:22:33;;;;;;;16.90;11.10;;;11.00;99.90;;;;;;5141543;27;20514;-68
2023/04/29 01:25:01;;;;;;;14.03;9.93;;;11.00;99.90;;;;;;5139031;27;20473;-69
2023/04/29 01:27:31;;;;;;;23.93;12.03;;;10.90;99.90;;;;;;5150771;27;20863;-68
2023/04/29 01:30:07;;;;;;;11.03;8.67;;;11.00;99.90;;;;;;5153660;27;20457;-68
2023/04/29 01:32:44;;;;;;;24.10;12.87;;;10.90;99.90;;;;;;5146190;27;20891;-68
2023/04/29 01:35:22;;;;;;;19.77;10.50;;;10.90;99.90;;;;;;5143721;27;20545;-68
2023/04/29 01:37:56;;;;;;;5.97;5.47;;;10.90;99.90;;;;;;5141542;27;20467;-68
2023/04/29 01:40:32;;;;;;;18.63;10.53;;;10.90;99.90;;;;;;5153396;27;20451;-69
2023/04/29 01:43:03;;;;;;;17.17;7.47;;;10.90;99.90;;;;;;5144398;27;21024;-68
2023/04/29 01:45:32;;;;;;;18.63;7.93;;;10.80;99.90;;;;;;5152550;27;20519;-68
2023/04/29 01:47:59;;;;;;;9.97;8.13;;;10.90;99.90;;;;;;5143101;27;20459;-68
2023/04/29 01:50:27;;;;;;;16.23;10.70;;;10.80;99.90;;;;;;5150597;27;20936;-68
2023/04/29 01:52:55;;;;;;;14.03;9.63;;;10.70;99.90;;;;;;5139379;27;20466;-68
2023/04/29 01:55:24;;;;;;;22.13;11.60;;;10.70;99.90;;;;;;5140954;27;20527;-69
2023/04/29 01:57:52;;;;;;;23.23;11.60;;;10.60;99.90;;;;;;5151990;27;20455;-68
2023/04/29 02:00:18;;;;;;;22.33;6.87;;;10.70;99.90;;;;;;5142743;27;20462;-68
2023/04/29 02:02:45;;;;;;;20.10;14.80;;;10.70;99.90;;;;;;5142007;27;20498;-69
2023/04/29 02:05:13;;;;;;;17.77;11.03;;;10.60;99.90;;;;;;5140161;27;20459;-69
2023/04/29 02:07:40;;;;;;;39.33;17.47;;;10.60;99.90;;;;;;5149375;27;21001;-68
2023/04/29 02:10:09;;;;;;;41.63;19.10;;;10.60;99.90;;;;;;5147273;27;20483;-68
2023/04/29 02:12:37;;;;;;;15.77;11.07;;;10.60;99.90;;;;;;5140693;27;20520;-68
2023/04/29 02:15:05;;;;;;;21.67;12.83;;;10.60;99.90;;;;;;5151652;27;20496;-68
2023/04/29 02:17:33;;;;;;;30.27;14.37;;;10.60;99.90;;;;;;5142714;27;20480;-68
2023/04/29 02:20:00;;;;;;;17.10;11.87;;;10.60;99.90;;;;;;5136787;27;20471;-68
2023/04/29 02:22:27;;;;;;;17.07;10.73;;;10.60;99.90;;;;;;5135090;27;20471;-69
2023/04/29 02:24:54;;;;;;;18.37;10.27;;;10.40;99.90;;;;;;5147625;27;20513;-69
2023/04/29 02:27:22;;;;;;;21.00;12.43;;;10.50;99.90;;;;;;5139855;27;20945;-68
2023/04/29 02:29:50;;;;;;;28.50;14.80;;;10.50;99.90;;;;;;5145844;27;20510;-68
2023/04/29 02:32:19;;;;;;;18.60;14.30;;;10.60;99.90;;;;;;5136565;27;20447;-68
2023/04/29 02:34:46;;;;;;;38.17;17.53;;;10.50;99.90;;;;;;5146295;27;20467;-68
2023/04/29 02:37:14;;;;;;;18.20;10.63;;;10.40;99.90;;;;;;5149421;27;20451;-68
2023/04/29 02:39:41;;;;;;;34.20;18.27;;;10.40;99.90;;;;;;5137821;27;20817;-69
2023/04/29 02:42:08;;;;;;;34.40;14.50;;;10.30;99.90;;;;;;5148269;27;20903;-69
2023/04/29 02:44:34;;;;;;;43.63;16.13;;;10.30;99.90;;;;;;5142052;27;20475;-69
2023/04/29 02:47:03;;;;;;;27.57;12.57;;;10.20;99.90;;;;;;5147302;27;20459;-69
2023/04/29 02:49:30;;;;;;;41.27;20.93;;;10.10;99.90;;;;;;5141754;27;21030;-68
2023/04/29 02:51:59;;;;;;;35.60;14.23;;;10.10;99.90;;;;;;5144809;27;20511;-68
2023/04/29 02:54:27;;;;;;;28.20;16.03;;;10.00;99.90;;;;;;5141381;27;20968;-68
2023/04/29 02:56:54;;;;;;;33.53;17.20;;;10.00;99.90;;;;;;5142790;27;20466;-69
2023/04/29 02:59:22;;;;;;;26.43;14.17;;;9.90;99.90;;;;;;5142969;27;20463;-68
2023/04/29 03:01:49;;;;;;;34.30;13.40;;;9.80;99.90;;;;;;5150636;27;20578;-68
2023/04/29 03:04:18;;;;;;;10.47;9.10;;;9.70;99.90;;;;;;5146890;27;20467;-68
2023/04/29 03:06:44;;;;;;;31.03;17.47;;;9.70;99.90;;;;;;5150367;27;20476;-69
2023/04/29 03:09:13;;;;;;;13.27;9.77;;;9.70;99.90;;;;;;5138563;27;20476;-68
2023/04/29 03:11:40;;;;;;;12.07;7.87;;;9.70;99.90;;;;;;5146850;27;20466;-69
2023/04/29 03:14:07;;;;;;;26.20;15.40;;;9.70;99.90;;;;;;5137642;27;20456;-66
2023/04/29 03:16:34;;;;;;;30.40;15.13;;;9.70;99.90;;;;;;5143585;27;20476;-68
2023/04/29 03:19:01;;;;;;;16.23;13.40;;;9.70;99.90;;;;;;5148988;27;20462;-68
2023/04/29 03:21:30;;;;;;;14.80;11.33;;;9.60;99.90;;;;;;5142280;27;20483;-68
2023/04/29 03:23:56;;;;;;;14.57;9.90;;;9.60;99.90;;;;;;5141491;27;20896;-67
2023/04/29 03:26:24;;;;;;;27.30;15.30;;;9.60;99.90;;;;;;5142811;27;20486;-68
2023/04/29 03:28:51;;;;;;;23.17;13.73;;;9.50;99.90;;;;;;5145105;27;20465;-68
2023/04/29 03:31:19;;;;;;;34.97;18.40;;;9.50;99.90;;;;;;5142318;27;20482;-68
2023/04/29 03:33:46;;;;;;;24.60;16.57;;;9.50;99.90;;;;;;5136968;27;20456;-69
2023/04/29 03:36:14;;;;;;;20.20;14.90;;;9.40;99.90;;;;;;5143074;27;20463;-68
2023/04/29 03:38:42;;;;;;;31.90;13.67;;;9.50;99.90;;;;;;5148506;27;20487;-69
2023/04/29 03:41:09;;;;;;;20.70;14.20;;;9.40;99.90;;;;;;5131668;27;20453;-69
2023/04/29 03:43:36;;;;;;;13.10;11.27;;;9.40;99.90;;;;;;5144283;27;20483;-68
2023/04/29 03:46:03;;;;;;;18.30;10.73;;;9.40;99.90;;;;;;5146998;27;20455;-69
2023/04/29 03:48:30;;;;;;;25.37;15.60;;;9.40;99.90;;;;;;5141922;27;20460;-69
2023/04/29 03:50:57;;;;;;;12.33;9.83;;;9.40;99.90;;;;;;5144359;27;20821;-69
2023/04/29 03:53:25;;;;;;;24.90;15.20;;;9.30;99.90;;;;;;5135558;27;20863;-69
2023/04/29 03:55:53;;;;;;;15.87;11.13;;;9.40;99.90;;;;;;5138795;27;20957;-69
2023/04/29 03:58:19;;;;;;;12.40;11.23;;;9.30;99.90;;;;;;5150182;27;20467;-69
2023/04/29 04:00:46;;;;;;;18.87;12.57;;;9.40;99.90;;;;;;5137036;27;20953;-69
2023/04/29 04:03:14;;;;;;;14.03;10.23;;;9.40;99.90;;;;;;5144720;27;20493;-69
2023/04/29 04:05:41;;;;;;;18.80;12.80;;;9.30;99.90;;;;;;5138089;27;20467;-69
2023/04/29 04:08:07;;;;;;;23.80;14.57;;;9.30;99.90;;;;;;5146300;27;20459;-68
2023/04/29 04:10:34;;;;;;;14.37;12.63;;;9.30;99.90;;;;;;5147112;27;20541;-68
2023/04/29 04:13:03;;;;;;;16.63;13.80;;;9.30;99.90;;;;;;5135532;27;20471;-69
2023/04/29 04:15:30;;;;;;;8.63;8.13;;;9.20;99.90;;;;;;5138562;27;20467;-68
2023/04/29 04:17:57;;;;;;;19.97;14.93;;;9.20;99.90;;;;;;5142784;27;20470;-69
2023/04/29 04:20:23;;;;;;;16.80;10.00;;;9.30;99.90;;;;;;5142314;27;20467;-69
2023/04/29 04:22:50;;;;;;;14.10;12.70;;;9.20;99.90;;;;;;5140143;27;20483;-68
2023/04/29 04:25:18;;;;;;;23.53;14.50;;;9.20;99.90;;;;;;5142785;27;20465;-68
2023/04/29 04:27:45;;;;;;;22.73;14.00;;;9.20;99.90;;;;;;5142563;27;20520;-69
2023/04/29 04:30:14;;;;;;;12.53;11.07;;;9.30;99.90;;;;;;5140605;27;20945;-69
2023/04/29 04:32:40;;;;;;;15.57;11.27;;;9.30;99.90;;;;;;5142595;27;21028;-69
2023/04/29 04:35:08;;;;;;;9.13;8.57;;;9.30;99.90;;;;;;5144662;27;20993;-68
2023/04/29 04:37:35;;;;;;;20.47;16.03;;;9.30;99.90;;;;;;5149731;27;20462;-68
2023/04/29 04:40:02;;;;;;;14.27;13.07;;;9.30;99.90;;;;;;5143053;27;20466;-69
2023/04/29 04:42:29;;;;;;;15.20;13.47;;;9.30;99.90;;;;;;5146815;27;20472;-68
2023/04/29 04:44:56;;;;;;;21.70;14.20;;;9.40;99.90;;;;;;5142339;27;20854;-69
2023/04/29 04:47:24;;;;;;;14.40;13.03;;;9.40;99.90;;;;;;5148465;27;20458;-68
2023/04/29 04:49:52;;;;;;;14.77;13.43;;;9.40;99.90;;;;;;5132489;27;20742;-68
2023/04/29 04:52:20;;;;;;;13.13;12.03;;;9.30;99.90;;;;;;5147615;27;20886;-69
2023/04/29 04:54:47;;;;;;;20.93;13.50;;;9.30;99.90;;;;;;5142377;27;20516;-69
2023/04/29 04:57:15;;;;;;;18.43;16.83;;;9.40;99.90;;;;;;5145674;27;20800;-68
2023/04/29 04:59:42;;;;;;;20.83;18.33;;;9.40;99.90;;;;;;5148386;27;20530;-68
2023/04/29 05:02:09;;;;;;;16.73;15.47;;;9.40;99.90;;;;;;5141478;27;20953;-69
2023/04/29 05:04:37;;;;;;;18.17;16.57;;;9.40;99.90;;;;;;5149662;27;20494;-68
2023/04/29 05:07:04;;;;;;;13.17;12.57;;;9.40;99.90;;;;;;5146827;27;20550;-70
2023/04/29 05:09:31;;;;;;;16.60;15.53;;;9.40;99.90;;;;;;5132460;27;20484;-70
2023/04/29 05:11:59;;;;;;;12.40;11.73;;;9.40;99.90;;;;;;5146413;27;21027;-69
2023/04/29 05:14:27;;;;;;;14.47;13.53;;;9.40;99.90;;;;;;5153911;27;20455;-68
2023/04/29 05:16:58;;;;;;;14.40;13.50;;;9.40;99.90;;;;;;5155350;27;20483;-68
2023/04/29 05:19:25;;;;;;;15.03;13.87;;;9.40;99.90;;;;;;5138782;27;20447;-69
2023/04/29 05:21:54;;;;;;;32.63;18.27;;;9.30;99.90;;;;;;5145507;27;20498;-69
2023/04/29 05:24:22;;;;;;;21.83;15.67;;;9.40;99.90;;;;;;5143990;27;20480;-69
2023/04/29 05:26:50;;;;;;;15.37;14.10;;;9.40;99.90;;;;;;5146958;27;20470;-70
2023/04/29 05:29:17;;;;;;;10.67;10.17;;;9.40;99.90;;;;;;5145797;27;20455;-68
2023/04/29 05:31:45;;;;;;;14.73;13.40;;;9.40;99.90;;;;;;5141484;27;20464;-68
2023/04/29 05:34:11;;;;;;;12.00;11.30;;;9.40;99.90;;;;;;5139537;27;20507;-68
2023/04/29 05:36:38;;;;;;;13.77;12.53;;;9.40;99.90;;;;;;5130656;27;20470;-68
2023/04/29 05:39:07;;;;;;;23.63;18.43;;;9.40;99.90;;;;;;5150880;27;20462;-68
2023/04/29 05:41:35;;;;;;;12.63;11.93;;;9.40;99.90;;;;;;5141808;27;20463;-69
2023/04/29 05:44:03;;;;;;;11.93;11.17;;;9.40;99.90;;;;;;5151470;27;20483;-69
2023/04/29 05:46:29;;;;;;;14.60;13.23;;;9.50;99.90;;;;;;5163620;27;20450;-69
2023/04/29 05:48:56;;;;;;;17.00;15.40;;;9.50;99.90;;;;;;5144004;27;20470;-68
2023/04/29 05:51:24;;;;;;;16.77;15.50;;;9.50;99.90;;;;;;5146646;27;20467;-67
2023/04/29 05:53:51;;;;;;;13.77;12.90;;;9.50;99.90;;;;;;5141454;27;20890;-70
2023/04/29 05:56:21;;;;;;;13.87;12.73;;;9.50;99.90;;;;;;5135362;27;20452;-70
2023/04/29 05:58:48;;;;;;;12.77;11.63;;;9.60;99.90;;;;;;5148339;27;20504;-69
2023/04/29 06:01:16;;;;;;;14.10;12.80;;;9.60;99.90;;;;;;5141209;27;20676;-70
2023/04/29 06:03:43;;;;;;;14.27;13.00;;;9.60;99.90;;;;;;5141634;27;20554;-69
2023/04/29 06:06:10;;;;;;;15.47;13.90;;;9.60;99.90;;;;;;5146241;27;20515;-69
2023/04/29 06:08:37;;;;;;;12.57;11.73;;;9.60;99.90;;;;;;5144322;27;20462;-69
2023/04/29 06:11:05;;;;;;;16.93;15.43;;;9.70;99.90;;;;;;5140278;27;20466;-69
2023/04/29 06:13:33;;;;;;;11.60;10.73;;;9.60;99.90;;;;;;5147427;27;20454;-70
2023/04/29 06:16:00;;;;;;;12.33;11.60;;;9.70;99.90;;;;;;5140856;27;20505;-70
2023/04/29 06:18:28;;;;;;;14.27;12.87;;;9.70;99.90;;;;;;5144232;27;20470;-69
2023/04/29 06:20:56;;;;;;;13.00;11.90;;;9.70;99.90;;;;;;5138083;27;21009;-69
2023/04/29 06:23:22;;;;;;;14.43;12.67;;;9.80;99.90;;;;;;5142746;27;20489;-69
2023/04/29 06:25:50;;;;;;;9.67;9.10;;;9.90;99.90;;;;;;5142874;27;20452;-69
2023/04/29 06:28:19;;;;;;;13.67;12.23;;;9.90;99.90;;;;;;5140472;27;20517;-69
2023/04/29 06:30:49;;;;;;;11.30;10.17;;;9.90;99.90;;;;;;5137129;27;20461;-69
2023/04/29 06:33:15;;;;;;;13.60;11.07;;;9.90;99.90;;;;;;5139733;27;20508;-69
2023/04/29 06:35:42;;;;;;;10.30;9.17;;;9.90;99.90;;;;;;5147956;27;20451;-68
2023/04/29 06:38:10;;;;;;;6.83;6.40;;;9.90;99.90;;;;;;5146628;27;20559;-70
2023/04/29 06:40:36;;;;;;;10.50;7.20;;;9.90;99.90;;;;;;5144648;27;20463;-70
2023/04/29 06:43:04;;;;;;;10.83;9.87;;;10.00;99.90;;;;;;5147646;27;20885;-70
2023/04/29 06:45:30;;;;;;;8.47;7.60;;;10.00;99.90;;;;;;5144907;27;20800;-69
2023/04/29 06:48:00;;;;;;;10.53;8.63;;;10.10;99.90;;;;;;5140245;27;20980;-68
2023/04/29 06:50:28;;;;;;;10.40;7.50;;;10.00;99.90;;;;;;5142975;27;20944;-69
2023/04/29 06:52:55;;;;;;;9.00;6.33;;;10.00;99.90;;;;;;5142603;27;20858;-68
2023/04/29 06:55:22;;;;;;;5.40;4.67;;;10.00;99.90;;;;;;5137957;27;20514;-68
2023/04/29 06:57:49;;;;;;;7.87;6.30;;;10.10;99.90;;;;;;5140954;27;20463;-70
2023/04/29 07:00:19;;;;;;;8.17;6.80;;;10.20;99.90;;;;;;5139719;27;20773;-69
2023/04/29 07:02:46;;;;;;;9.63;7.10;;;10.10;99.90;;;;;;5144473;27;20753;-69
2023/04/29 07:05:16;;;;;;;4.30;4.00;;;10.20;99.90;;;;;;5148261;27;20556;-68
2023/04/29 07:07:42;;;;;;;8.27;7.47;;;10.20;99.90;;;;;;5139328;27;20483;-68
2023/04/29 07:10:10;;;;;;;5.87;5.50;;;10.30;99.90;;;;;;5135693;27;20850;-69
2023/04/29 07:12:37;;;;;;;5.20;4.80;;;10.20;99.90;;;;;;5147907;27;20455;-68
2023/04/29 07:15:04;;;;;;;9.07;6.30;;;10.30;99.90;;;;;;5143159;27;20512;-69
2023/04/29 07:17:31;;;;;;;4.53;4.20;;;10.30;99.90;;;;;;5141649;27;20864;-68
2023/04/29 07:19:58;;;;;;;8.23;7.50;;;10.20;99.90;;;;;;5142784;27;20462;-69
2023/04/29 07:22:26;;;;;;;13.80;8.03;;;10.30;99.90;;;;;;5144323;27;20460;-69
2023/04/29 07:24:54;;;;;;;9.23;8.17;;;10.20;99.90;;;;;;5138474;27;20910;-69
2023/04/29 07:27:21;;;;;;;6.07;5.57;;;10.30;99.90;;;;;;5150756;27;20554;-68
2023/04/29 07:29:49;;;;;;;7.30;6.60;;;10.30;99.90;;;;;;5151089;27;20814;-69
2023/04/29 07:32:16;;;;;;;4.30;4.10;;;10.30;99.90;;;;;;5144834;27;20512;-69
2023/04/29 07:34:43;;;;;;;8.00;7.37;;;10.40;99.90;;;;;;5137024;27;20463;-68
2023/04/29 07:37:10;;;;;;;10.67;8.37;;;10.50;99.90;;;;;;5145740;27;20940;-69
2023/04/29 07:39:41;;;;;;;10.57;9.57;;;10.50;99.90;;;;;;5146805;27;20528;-68
2023/04/29 07:42:08;;;;;;;5.77;5.47;;;10.50;99.90;;;;;;5137111;27;20456;-69
2023/04/29 07:44:35;;;;;;;7.23;6.73;;;10.40;99.90;;;;;;5138644;27;20494;-68
2023/04/29 07:47:02;;;;;;;6.53;6.10;;;10.50;99.90;;;;;;5141307;27;20938;-68
2023/04/29 07:49:29;;;;;;;7.70;6.87;;;10.60;99.90;;;;;;5140240;27;20466;-69
2023/04/29 07:51:56;;;;;;;6.13;5.73;;;10.60;99.90;;;;;;5140030;27;20536;-68
2023/04/29 07:54:23;;;;;;;6.00;5.60;;;10.60;99.90;;;;;;5130737;27;20950;-68
2023/04/29 07:56:51;;;;;;;10.00;9.00;;;10.60;99.90;;;;;;5131753;27;21033;-69
2023/04/29 07:59:18;;;;;;;5.07;4.77;;;10.50;99.90;;;;;;5141349;27;20456;-67
2023/04/29 08:01:45;;;;;;;7.20;6.73;;;10.50;99.90;;;;;;5139289;27;20463;-68
2023/04/29 08:04:13;;;;;;;5.20;4.90;;;10.50;99.90;;;;;;5141368;27;21007;-67
2023/04/29 08:06:41;;;;;;;7.97;6.93;;;10.40;99.90;;;;;;5147391;27;20474;-68
2023/04/29 08:09:09;;;;;;;7.77;7.10;;;10.30;99.90;;;;;;5140404;27;20497;-69
2023/04/29 08:11:38;;;;;;;6.70;6.17;;;10.30;99.90;;;;;;5136639;27;20539;-67
2023/04/29 08:14:07;;;;;;;6.43;6.03;;;10.30;99.90;;;;;;5139866;27;20474;-67
2023/04/29 08:16:34;;;;;;;12.40;7.27;;;10.30;99.90;;;;;;5141501;27;20484;-68
2023/04/29 08:19:01;;;;;;;8.90;7.10;;;10.30;99.90;;;;;;5142886;27;20454;-68
2023/04/29 08:21:28;;;;;;;6.63;6.20;;;10.30;99.90;;;;;;5136233;27;20868;-68
2023/04/29 08:23:56;;;;;;;8.07;7.23;;;10.30;99.90;;;;;;5147270;27;20471;-68
2023/04/29 08:26:25;;;;;;;4.90;4.70;;;10.40;99.90;;;;;;5136509;27;20455;-68
2023/04/29 08:28:53;;;;;;;6.10;5.77;;;10.40;99.90;;;;;;5140184;27;20579;-68
2023/04/29 08:31:22;;;;;;;5.30;4.97;;;10.60;99.90;;;;;;5139806;27;20616;-68
2023/04/29 08:33:49;;;;;;;7.10;6.53;;;10.80;99.90;;;;;;5141021;27;21249;-67
2023/04/29 08:36:17;;;;;;;7.60;6.90;;;11.10;99.90;;;;;;5137070;27;21036;-68
2023/04/29 08:38:45;;;;;;;6.73;6.23;;;11.30;99.90;;;;;;5141369;27;20447;-68
2023/04/29 08:41:14;;;;;;;5.63;5.20;;;11.50;99.90;;;;;;5137632;27;20578;-68
2023/04/29 08:43:41;;;;;;;10.83;9.77;;;11.80;99.90;;;;;;5144127;27;20478;-68
2023/04/29 08:46:08;;;;;;;14.10;8.53;;;12.20;99.90;;;;;;5137483;27;20471;-67
2023/04/29 08:48:39;;;;;;;8.90;8.13;;;12.40;99.90;;;;;;5134723;27;20463;-68
2023/04/29 08:51:07;;;;;;;9.33;8.77;;;12.60;99.90;;;;;;5139204;27;20483;-68
2023/04/29 08:53:36;;;;;;;9.37;8.77;;;12.80;99.90;;;;;;5133845;27;20462;-67
2023/04/29 08:56:15;;;;;;;11.70;10.83;;;13.10;99.90;;;;;;5142344;27;20448;-68
2023/04/29 08:58:43;;;;;;;8.53;8.23;;;13.30;99.90;;;;;;5138800;27;20458;-68
2023/04/29 09:01:10;;;;;;;10.23;9.47;;;13.60;99.90;;;;;;5145111;27;20983;-68
2023/04/29 09:03:46;;;;;;;14.07;13.13;;;14.00;99.90;;;;;;5135348;27;20509;-68
2023/04/29 09:06:14;;;;;;;14.50;13.40;;;14.30;99.90;;;;;;5139488;27;20470;-68
2023/04/29 09:08:42;;;;;;;14.77;14.07;;;14.60;99.90;;;;;;5142056;27;20945;-68
2023/04/29 09:11:11;;;;;;;16.17;15.27;;;14.80;99.90;;;;;;5143130;27;20460;-68
2023/04/29 09:13:38;;;;;;;15.43;14.50;;;14.60;99.90;;;;;;5146517;27;20498;-69
2023/04/29 09:16:10;;;;;;;16.13;15.13;;;14.80;99.90;;;;;;5143027;27;20447;-68
2023/04/29 09:18:48;;;;;;;14.43;13.63;;;14.60;99.90;;;;;;5142662;27;20455;-68
2023/04/29 09:21:17;;;;;;;16.20;15.40;;;14.10;99.90;;;;;;5142598;27;20443;-69
2023/04/29 09:23:44;;;;;;;16.23;15.20;;;13.60;99.90;;;;;;5136733;27;20467;-69
2023/04/29 09:26:12;;;;;;;13.70;12.93;;;13.50;99.90;;;;;;5141508;27;21015;-69
2023/04/29 09:28:43;;;;;;;14.90;13.73;;;13.30;99.90;;;;;;5144222;27;20454;-68
2023/04/29 09:31:12;;;;;;;17.23;15.83;;;13.00;99.90;;;;;;5141822;27;20512;-68
2023/04/29 09:33:53;;;;;;;13.00;12.40;;;12.80;99.90;;;;;;5134241;27;20463;-68
2023/04/29 09:36:38;;;;;;;14.90;13.97;;;12.70;99.90;;;;;;5146724;27;20447;-69
2023/04/29 09:39:10;;;;;;;15.43;14.33;;;12.70;99.90;;;;;;5134790;27;20457;-68
2023/04/29 09:41:38;;;;;;;13.20;12.50;;;12.60;99.90;;;;;;5137872;27;20496;-68
2023/04/29 09:44:05;;;;;;;14.77;13.63;;;12.50;99.90;;;;;;5131918;27;20953;-67
2023/04/29 09:46:33;;;;;;;11.00;10.50;;;12.30;99.90;;;;;;5142205;27;20455;-68
2023/04/29 09:49:02;;;;;;;15.33;14.13;;;12.40;99.90;;;;;;5142979;27;20483;-68
2023/04/29 09:51:32;;;;;;;11.90;11.00;;;12.40;99.90;;;;;;5142688;27;20452;-68
2023/04/29 09:54:01;;;;;;;11.23;10.53;;;12.30;99.90;;;;;;5142671;27;20472;-69
2023/04/29 09:56:29;;;;;;;13.73;12.97;;;12.30;99.90;;;;;;5139463;27;20464;-68
2023/04/29 09:58:57;;;;;;;16.63;15.40;;;12.10;99.90;;;;;;5145193;27;20451;-70
2023/04/29 10:01:27;;;;;;;17.17;15.63;;;12.00;99.90;;;;;;5143789;27;20460;-70
2023/04/29 10:03:56;;;;;;;15.50;14.17;;;12.00;99.90;;;;;;5149066;27;20455;-69
2023/04/29 10:06:25;;;;;;;19.00;16.37;;;12.20;99.90;;;;;;5146356;27;20463;-69
2023/04/29 10:08:53;;;;;;;17.47;15.93;;;12.20;99.90;;;;;;5148955;27;20549;-69
2023/04/29 10:11:21;;;;;;;13.13;12.30;;;12.00;99.90;;;;;;5145864;27;20470;-69
2023/04/29 10:13:50;;;;;;;13.33;12.50;;;11.90;99.90;;;;;;5139663;27;20502;-69
2023/04/29 10:16:27;;;;;;;12.10;11.10;;;12.10;99.90;;;;;;5146703;27;20528;-69
2023/04/29 10:19:00;;;;;;;19.10;16.43;;;12.10;99.90;;;;;;5139856;27;20923;-69
2023/04/29 10:21:31;;;;;;;14.57;13.70;;;12.10;99.90;;;;;;5140586;27;20483;-69
2023/04/29 10:23:59;;;;;;;13.47;12.13;;;12.20;99.90;;;;;;5141502;27;20484;-69
2023/04/29 10:26:28;;;;;;;12.50;11.27;;;12.20;99.90;;;;;;5137097;27;20451;-68
2023/04/29 10:28:56;;;;;;;21.47;14.27;;;12.10;99.90;;;;;;5140955;27;20536;-68
2023/04/29 10:31:25;;;;;;;15.60;13.93;;;12.20;99.90;;;;;;5147072;27;20957;-68
2023/04/29 10:33:55;;;;;;;15.30;13.87;;;12.30;99.90;;;;;;5142136;27;20517;-68
2023/04/29 10:36:23;;;;;;;21.80;16.57;;;12.40;99.90;;;;;;5143457;27;20455;-69
2023/04/29 10:38:55;;;;;;;16.63;15.13;;;12.30;99.90;;;;;;5147792;27;20547;-68
2023/04/29 10:41:27;;;;;;;11.70;10.90;;;12.30;99.90;;;;;;5139805;27;20502;-68
2023/04/29 10:43:55;;;;;;;12.07;11.30;;;12.40;99.90;;;;;;5146689;27;21030;-68
2023/04/29 10:46:25;;;;;;;15.70;14.37;;;12.60;99.90;;;;;;5140928;27;20846;-68
2023/04/29 10:48:58;;;;;;;15.57;14.07;;;12.70;99.90;;;;;;5140351;27;20544;-68
2023/04/29 10:51:33;;;;;;;17.37;15.13;;;12.60;99.90;;;;;;5136957;27;20452;-68
2023/04/29 10:54:06;;;;;;;15.03;13.30;;;12.60;99.90;;;;;;5138321;27;20458;-68
2023/04/29 10:56:43;;;;;;;13.00;12.00;;;12.80;99.90;;;;;;5146471;27;20847;-68
2023/04/29 10:59:13;;;;;;;15.00;13.63;;;12.90;99.90;;;;;;5138294;27;20563;-68
2023/04/29 11:01:48;;;;;;;17.27;15.67;;;13.10;99.90;;;;;;5142776;27;20464;-68
2023/04/29 11:04:16;;;;;;;14.93;13.87;;;13.10;99.90;;;;;;5134745;27;20920;-68
2023/04/29 11:06:46;;;;;;;19.23;17.53;;;13.10;99.90;;;;;;5144951;27;20474;-68
2023/04/29 11:09:19;;;;;;;11.10;10.60;;;13.00;99.90;;;;;;5140372;27;20479;-68
2023/04/29 11:12:01;;;;;;;14.97;13.93;;;13.00;99.90;;;;;;5143529;27;20459;-69
2023/04/29 11:14:36;;;;;;;14.30;13.50;;;13.00;99.90;;;;;;5122283;27;20472;-69
2023/04/29 11:17:05;;;;;;;12.60;11.90;;;13.00;99.90;;;;;;5148222;27;20482;-70
2023/04/29 11:19:33;;;;;;;15.23;14.13;;;13.20;99.90;;;;;;5135835;27;20958;-70
2023/04/29 11:22:26;;;;;;;12.57;11.63;;;13.30;99.90;;;;;;5142202;27;20474;-67
2023/04/29 11:24:56;;;;;;;14.50;13.40;;;13.30;99.90;;;;;;5148177;27;20490;-68
2023/04/29 11:27:27;;;;;;;13.83;12.63;;;13.30;99.90;;;;;;5143432;27;21037;-68
2023/04/29 11:29:57;;;;;;;14.33;13.23;;;13.20;99.90;;;;;;5137861;27;20816;-68
2023/04/29 11:32:24;;;;;;;16.50;15.17;;;13.20;99.90;;;;;;5144291;27;20540;-68
2023/04/29 11:34:52;;;;;;;18.03;16.43;;;13.10;99.90;;;;;;5143433;27;20463;-68
2023/04/29 11:37:24;;;;;;;15.43;14.27;;;13.00;99.90;;;;;;5142107;27;20486;-69
2023/04/29 11:39:51;;;;;;;12.77;12.00;;;13.00;99.90;;;;;;5142470;27;20460;-69
2023/04/29 11:42:23;;;;;;;14.30;13.40;;;13.20;99.90;;;;;;5142047;27;20456;-69
2023/04/29 11:44:53;;;;;;;14.00;13.20;;;13.40;99.90;;;;;;5142051;27;20488;-69
2023/04/29 11:47:21;;;;;;;12.90;12.20;;;13.60;99.90;;;;;;5147110;27;20460;-70
2023/04/29 11:49:48;;;;;;;14.93;13.97;;;13.70;99.90;;;;;;5141927;27;20444;-69
2023/04/29 11:52:16;;;;;;;15.40;14.40;;;14.10;99.90;;;;;;5134504;27;20471;-69
2023/04/29 11:54:43;;;;;;;13.27;12.47;;;14.00;99.90;;;;;;5145175;27;20467;-70
2023/04/29 11:57:11;;;;;;;17.73;16.23;;;14.20;99.90;;;;;;5139468;27;20876;-70
2023/04/29 11:59:43;;;;;;;13.10;12.50;;;14.50;99.90;;;;;;5139357;27;20466;-70
2023/04/29 12:02:13;;;;;;;15.23;14.43;;;14.90;99.90;;;;;;5141436;27;20830;-69
2023/04/29 12:04:45;;;;;;;15.53;14.53;;;14.90;99.90;;;;;;5143494;27;20958;-69
2023/04/29 12:07:15;;;;;;;15.43;14.63;;;14.90;99.90;;;;;;5135183;27;20472;-69
2023/04/29 12:09:43;;;;;;;13.63;12.83;;;15.10;99.90;;;;;;5139379;27;21016;-69
2023/04/29 12:12:10;;;;;;;13.60;13.00;;;15.40;99.90;;;;;;5138515;27;20550;-69
2023/04/29 12:14:38;;;;;;;14.60;13.87;;;15.60;99.90;;;;;;5147087;27;20466;-70
2023/04/29 12:17:07;;;;;;;13.00;12.50;;;15.60;99.90;;;;;;5138267;27;21052;-69
2023/04/29 12:19:36;;;;;;;17.23;16.17;;;15.80;99.90;;;;;;5136701;27;20813;-70
2023/04/29 12:22:03;;;;;;;16.90;15.60;;;15.70;99.90;;;;;;5143589;27;20505;-69
2023/04/29 12:24:34;;;;;;;14.33;13.50;;;15.70;99.90;;;;;;5134573;27;20472;-70
2023/04/29 12:27:01;;;;;;;13.40;12.80;;;15.70;99.90;;;;;;5134408;27;20488;-69
2023/04/29 12:29:28;;;;;;;13.70;13.07;;;15.80;99.90;;;;;;5140716;27;20547;-69
2023/04/29 12:31:57;;;;;;;14.30;13.50;;;15.90;99.90;;;;;;5141484;27;21015;-69
2023/04/29 12:34:29;;;;;;;15.10;14.10;;;16.00;99.90;;;;;;5140289;27;20456;-69
2023/04/29 12:36:58;;;;;;;15.37;14.50;;;16.10;99.90;;;;;;5144297;27;20479;-69
2023/04/29 12:39:26;;;;;;;17.17;16.17;;;16.30;99.90;;;;;;5147682;27;20455;-70
2023/04/29 12:41:56;;;;;;;15.17;14.33;;;16.50;99.90;;;;;;5140851;27;20473;-69